createdAt,value
2018-05-29T00:00:16.924Z,21.82
2018-05-29T00:01:37.842Z,21.83
2018-05-29T00:02:16.780Z,21.77
2018-05-29T00:03:16.711Z,21.68
2018-05-29T00:04:16.657Z,21.71
2018-05-29T00:05:16.572Z,21.67
2018-05-29T00:06:16.511Z,21.53
2018-05-29T00:07:37.425Z,21.56
2018-05-29T00:08:16.375Z,21.50
2018-05-29T00:09:16.339Z,21.56
2018-05-29T00:10:16.326Z,21.50
2018-05-29T00:11:16.180Z,21.58
2018-05-29T00:12:16.101Z,21.52
2018-05-29T00:13:37.025Z,21.59
2018-05-29T00:14:15.962Z,21.52
2018-05-29T00:15:15.895Z,21.49
2018-05-29T00:16:15.829Z,21.42
2018-05-29T00:17:15.764Z,21.40
2018-05-29T00:18:15.698Z,21.43
2018-05-29T00:19:36.624Z,21.31
2018-05-29T00:20:15.589Z,21.25
2018-05-29T00:21:15.495Z,21.22
2018-05-29T00:22:15.419Z,21.21
2018-05-29T00:23:15.348Z,21.25
2018-05-29T00:24:15.285Z,21.21
2018-05-29T00:25:36.202Z,21.27
2018-05-29T00:26:15.151Z,21.27
2018-05-29T00:27:15.075Z,21.21
2018-05-29T00:28:15.034Z,21.25
2018-05-29T00:29:14.939Z,21.28
2018-05-29T00:30:14.881Z,21.35
2018-05-29T00:31:35.786Z,21.28
2018-05-29T00:32:14.736Z,21.31
2018-05-29T00:33:14.669Z,21.19
2018-05-29T00:34:14.601Z,21.29
2018-05-29T00:35:14.531Z,21.24
2018-05-29T00:36:14.483Z,21.13
2018-05-29T00:37:35.394Z,21.31
2018-05-29T00:38:14.323Z,21.29
2018-05-29T00:39:14.259Z,21.27
2018-05-29T00:40:14.200Z,21.29
2018-05-29T00:41:14.122Z,21.22
2018-05-29T00:42:14.050Z,21.25
2018-05-29T00:43:34.984Z,21.28
2018-05-29T00:44:13.912Z,21.22
2018-05-29T00:45:13.849Z,21.16
2018-05-29T00:46:13.789Z,21.24
2018-05-29T00:47:13.718Z,21.21
2018-05-29T00:48:13.658Z,21.28
2018-05-29T00:49:34.570Z,21.31
2018-05-29T00:50:13.540Z,21.24
2018-05-29T00:51:13.440Z,21.28
2018-05-29T00:52:13.377Z,21.25
2018-05-29T00:53:13.304Z,21.42
2018-05-29T00:54:13.236Z,21.35
2018-05-29T00:55:34.158Z,21.32
2018-05-29T00:56:13.098Z,21.22
2018-05-29T00:57:13.027Z,21.22
2018-05-29T00:58:12.967Z,21.10
2018-05-29T00:59:12.896Z,21.12
2018-05-29T01:00:12.831Z,21.09
2018-05-29T01:01:33.743Z,21.06
2018-05-29T01:02:12.694Z,21.04
2018-05-29T01:03:12.622Z,21.10
2018-05-29T01:04:12.557Z,21.12
2018-05-29T01:05:12.496Z,21.17
2018-05-29T01:06:12.426Z,21.13
2018-05-29T01:07:33.334Z,21.12
2018-05-29T01:08:12.284Z,21.12
2018-05-29T01:09:12.218Z,21.13
2018-05-29T01:10:12.145Z,21.12
2018-05-29T01:11:12.091Z,21.04
2018-05-29T01:12:12.013Z,20.95
2018-05-29T01:13:32.945Z,20.91
2018-05-29T01:14:11.876Z,21.01
2018-05-29T01:15:11.810Z,20.97
2018-05-29T01:16:11.765Z,20.89
2018-05-29T01:17:11.668Z,20.99
2018-05-29T01:18:11.598Z,21.04
2018-05-29T01:19:32.518Z,21.13
2018-05-29T01:20:11.464Z,21.03
2018-05-29T01:21:11.400Z,21.01
2018-05-29T01:22:11.325Z,20.99
2018-05-29T01:23:11.255Z,20.94
2018-05-29T01:24:11.200Z,20.84
2018-05-29T01:25:32.110Z,20.88
2018-05-29T01:26:11.050Z,20.99
2018-05-29T01:27:10.979Z,20.92
2018-05-29T01:28:10.920Z,20.98
2018-05-29T01:29:10.842Z,21.01
2018-05-29T01:30:10.778Z,20.84
2018-05-29T01:31:31.692Z,20.79
2018-05-29T01:32:10.645Z,20.62
2018-05-29T01:33:10.584Z,20.55
2018-05-29T01:34:10.504Z,20.39
2018-05-29T01:35:10.439Z,20.23
2018-05-29T01:36:10.372Z,20.23
2018-05-29T01:37:31.295Z,20.23
2018-05-29T01:38:10.227Z,20.23
2018-05-29T01:39:10.168Z,20.21
2018-05-29T01:40:10.098Z,20.21
2018-05-29T01:41:10.029Z,20.14
2018-05-29T01:42:09.960Z,20.13
2018-05-29T01:43:30.905Z,19.99
2018-05-29T01:44:09.818Z,19.96
2018-05-29T01:45:09.756Z,20.02
2018-05-29T01:46:09.689Z,20.14
2018-05-29T01:47:09.620Z,20.18
2018-05-29T01:48:09.542Z,20.05
2018-05-29T01:49:30.479Z,19.99
2018-05-29T01:50:09.412Z,20.01
2018-05-29T01:51:09.336Z,20.05
2018-05-29T01:52:09.282Z,19.98
2018-05-29T01:53:09.195Z,19.98
2018-05-29T01:54:09.130Z,20.01
2018-05-29T01:55:30.053Z,20.08
2018-05-29T01:56:08.988Z,20.03
2018-05-29T01:57:08.923Z,19.92
2018-05-29T01:58:08.858Z,19.88
2018-05-29T01:59:08.785Z,19.83
2018-05-29T02:00:08.733Z,19.86
2018-05-29T02:01:29.637Z,19.92
2018-05-29T02:02:08.580Z,19.87
2018-05-29T02:03:08.524Z,19.87
2018-05-29T02:04:08.438Z,19.94
2018-05-29T02:05:08.374Z,19.84
2018-05-29T02:06:08.298Z,19.91
2018-05-29T02:07:29.256Z,19.74
2018-05-29T02:08:08.166Z,19.76
2018-05-29T02:09:08.094Z,19.66
2018-05-29T02:10:08.026Z,19.69
2018-05-29T02:11:07.959Z,19.61
2018-05-29T02:12:07.894Z,19.61
2018-05-29T02:13:28.816Z,19.61
2018-05-29T02:14:07.778Z,19.65
2018-05-29T02:15:07.690Z,19.65
2018-05-29T02:16:07.614Z,19.63
2018-05-29T02:17:07.547Z,19.61
2018-05-29T02:18:07.545Z,19.68
2018-05-29T02:19:28.405Z,19.63
2018-05-29T02:20:07.374Z,19.74
2018-05-29T02:21:07.272Z,19.68
2018-05-29T02:22:07.209Z,19.65
2018-05-29T02:23:07.134Z,19.61
2018-05-29T02:24:07.057Z,19.62
2018-05-29T02:25:27.973Z,19.66
2018-05-29T02:26:06.919Z,19.56
2018-05-29T02:27:06.851Z,19.56
2018-05-29T02:28:06.793Z,19.58
2018-05-29T02:29:06.715Z,19.56
2018-05-29T02:30:06.682Z,19.66
2018-05-29T02:31:27.564Z,19.54
2018-05-29T02:32:06.508Z,19.56
2018-05-29T02:33:06.456Z,19.51
2018-05-29T02:34:06.365Z,19.61
2018-05-29T02:35:06.296Z,19.55
2018-05-29T02:36:06.241Z,19.54
2018-05-29T02:37:27.152Z,19.54
2018-05-29T02:38:06.112Z,19.55
2018-05-29T02:39:06.018Z,19.65
2018-05-29T02:40:05.954Z,19.61
2018-05-29T02:41:05.897Z,19.54
2018-05-29T02:42:05.812Z,19.58
2018-05-29T02:43:26.737Z,19.63
2018-05-29T02:44:05.689Z,19.55
2018-05-29T02:45:05.621Z,19.51
2018-05-29T02:46:05.548Z,19.54
2018-05-29T02:47:05.465Z,19.51
2018-05-29T02:48:05.417Z,19.56
2018-05-29T02:49:26.318Z,19.47
2018-05-29T02:50:05.265Z,19.46
2018-05-29T02:51:05.202Z,19.44
2018-05-29T02:52:05.126Z,19.41
2018-05-29T02:53:05.054Z,19.33
2018-05-29T02:54:04.978Z,19.32
2018-05-29T02:55:25.895Z,19.28
2018-05-29T02:56:04.844Z,19.32
2018-05-29T02:57:04.777Z,19.26
2018-05-29T02:58:04.709Z,19.23
2018-05-29T02:59:04.641Z,19.25
2018-05-29T03:00:04.566Z,19.11
2018-05-29T03:01:25.484Z,19.14
2018-05-29T03:02:04.430Z,19.14
2018-05-29T03:03:04.359Z,19.07
2018-05-29T03:04:04.290Z,19.00
2018-05-29T03:05:04.219Z,19.08
2018-05-29T03:06:04.155Z,19.06
2018-05-29T03:07:25.067Z,19.14
2018-05-29T03:08:04.069Z,19.16
2018-05-29T03:09:03.945Z,19.08
2018-05-29T03:10:03.876Z,19.10
2018-05-29T03:11:03.806Z,19.18
2018-05-29T03:12:03.731Z,19.21
2018-05-29T03:13:24.644Z,19.31
2018-05-29T03:14:03.591Z,19.22
2018-05-29T03:15:03.531Z,19.19
2018-05-29T03:16:03.470Z,19.00
2018-05-29T03:17:03.383Z,18.99
2018-05-29T03:18:03.315Z,18.92
2018-05-29T03:19:24.236Z,19.07
2018-05-29T03:20:03.177Z,19.00
2018-05-29T03:21:03.105Z,19.00
2018-05-29T03:22:03.033Z,19.04
2018-05-29T03:23:02.969Z,18.82
2018-05-29T03:24:02.902Z,18.87
2018-05-29T03:25:23.816Z,18.94
2018-05-29T03:26:02.759Z,18.90
2018-05-29T03:27:02.688Z,18.87
2018-05-29T03:28:02.623Z,18.91
2018-05-29T03:29:02.563Z,18.92
2018-05-29T03:30:02.486Z,18.94
2018-05-29T03:31:23.404Z,18.88
2018-05-29T03:32:02.351Z,18.80
2018-05-29T03:33:02.273Z,18.80
2018-05-29T03:34:02.209Z,18.81
2018-05-29T03:35:02.137Z,18.78
2018-05-29T03:36:02.063Z,18.67
2018-05-29T03:37:22.981Z,18.65
2018-05-29T03:38:01.927Z,18.66
2018-05-29T03:39:01.856Z,18.66
2018-05-29T03:40:01.782Z,18.75
2018-05-29T03:41:01.721Z,18.72
2018-05-29T03:42:01.645Z,18.72
2018-05-29T03:43:22.589Z,18.63
2018-05-29T03:44:01.502Z,18.69
2018-05-29T03:45:01.433Z,18.72
2018-05-29T03:46:01.414Z,18.75
2018-05-29T03:47:01.340Z,18.81
2018-05-29T03:48:01.290Z,18.85
2018-05-29T03:49:22.136Z,18.85
2018-05-29T03:50:01.084Z,19.02
2018-05-29T03:51:01.019Z,18.94
2018-05-29T03:52:00.959Z,19.07
2018-05-29T03:53:00.879Z,19.00
2018-05-29T03:54:00.816Z,18.88
2018-05-29T03:55:21.729Z,18.88
2018-05-29T03:56:00.670Z,18.90
2018-05-29T03:57:00.597Z,18.87
2018-05-29T03:58:00.532Z,18.85
2018-05-29T03:59:00.482Z,18.81
2018-05-29T04:00:00.391Z,18.85
2018-05-29T04:01:21.304Z,18.78
2018-05-29T04:02:00.263Z,18.91
2018-05-29T04:03:00.180Z,18.90
2018-05-29T04:04:00.114Z,18.85
2018-05-29T04:05:00.037Z,18.82
2018-05-29T04:05:59.974Z,18.91
2018-05-29T04:07:20.896Z,18.95
2018-05-29T04:07:59.831Z,19.06
2018-05-29T04:08:59.760Z,19.02
2018-05-29T04:09:59.741Z,19.07
2018-05-29T04:10:59.636Z,18.94
2018-05-29T04:11:59.557Z,18.98
2018-05-29T04:13:20.467Z,18.98
2018-05-29T04:13:59.420Z,18.90
2018-05-29T04:14:59.353Z,18.88
2018-05-29T04:15:59.283Z,18.81
2018-05-29T04:16:59.204Z,18.80
2018-05-29T04:17:59.135Z,18.78
2018-05-29T04:19:20.079Z,18.81
2018-05-29T04:19:58.997Z,18.75
2018-05-29T04:20:58.926Z,18.73
2018-05-29T04:21:58.855Z,18.87
2018-05-29T04:22:58.789Z,18.82
2018-05-29T04:23:58.718Z,18.88
2018-05-29T04:25:19.628Z,18.92
2018-05-29T04:25:58.582Z,18.91
2018-05-29T04:26:58.510Z,18.90
2018-05-29T04:27:58.439Z,18.87
2018-05-29T04:28:58.383Z,18.91
2018-05-29T04:29:58.298Z,18.90
2018-05-29T04:31:19.254Z,18.90
2018-05-29T04:31:58.160Z,18.95
2018-05-29T04:32:58.089Z,18.91
2018-05-29T04:33:58.025Z,18.82
2018-05-29T04:34:57.956Z,18.98
2018-05-29T04:35:57.876Z,19.07
2018-05-29T04:37:18.790Z,19.04
2018-05-29T04:37:57.742Z,18.94
2018-05-29T04:38:57.668Z,18.90
2018-05-29T04:39:57.610Z,18.95
2018-05-29T04:40:57.539Z,19.08
2018-05-29T04:41:57.460Z,19.14
2018-05-29T04:43:18.390Z,19.10
2018-05-29T04:43:57.353Z,19.23
2018-05-29T04:44:57.299Z,19.21
2018-05-29T04:45:57.183Z,19.21
2018-05-29T04:46:57.197Z,19.26
2018-05-29T04:47:57.043Z,19.32
2018-05-29T04:49:17.961Z,19.37
2018-05-29T04:49:56.913Z,19.48
2018-05-29T04:50:56.836Z,19.48
2018-05-29T04:51:56.762Z,19.54
2018-05-29T04:52:56.710Z,19.54
2018-05-29T04:53:56.628Z,19.56
2018-05-29T04:55:17.545Z,19.59
2018-05-29T04:55:56.507Z,19.71
2018-05-29T04:56:56.417Z,19.66
2018-05-29T04:57:56.370Z,19.76
2018-05-29T04:58:56.290Z,19.88
2018-05-29T04:59:56.211Z,19.88
2018-05-29T05:01:17.131Z,19.86
2018-05-29T05:01:56.084Z,19.87
2018-05-29T05:02:56.007Z,19.99
2018-05-29T05:03:55.938Z,19.96
2018-05-29T05:04:55.872Z,19.98
2018-05-29T05:05:55.828Z,20.05
2018-05-29T05:07:16.708Z,19.99
2018-05-29T05:07:55.664Z,20.01
2018-05-29T05:08:55.615Z,20.01
2018-05-29T05:09:55.524Z,20.14
2018-05-29T05:10:55.462Z,20.14
2018-05-29T05:11:55.387Z,20.23
2018-05-29T05:13:16.295Z,20.11
2018-05-29T05:13:55.249Z,20.23
2018-05-29T05:14:55.176Z,20.28
2018-05-29T05:15:55.102Z,20.33
2018-05-29T05:16:55.044Z,20.35
2018-05-29T05:17:54.964Z,20.35
2018-05-29T05:19:15.887Z,20.35
2018-05-29T05:19:54.832Z,20.36
2018-05-29T05:20:54.772Z,20.39
2018-05-29T05:21:54.692Z,20.55
2018-05-29T05:22:54.638Z,20.55
2018-05-29T05:23:54.559Z,20.62
2018-05-29T05:25:15.469Z,20.72
2018-05-29T05:25:54.420Z,20.80
2018-05-29T05:26:54.349Z,20.80
2018-05-29T05:27:54.283Z,20.84
2018-05-29T05:28:54.217Z,20.84
2018-05-29T05:29:54.148Z,20.87
2018-05-29T05:31:15.053Z,20.95
2018-05-29T05:31:54.006Z,21.01
2018-05-29T05:32:53.946Z,20.87
2018-05-29T05:33:53.873Z,20.94
2018-05-29T05:34:53.813Z,21.01
2018-05-29T05:35:53.740Z,20.92
2018-05-29T05:37:14.650Z,20.97
2018-05-29T05:37:53.595Z,20.99
2018-05-29T05:38:53.527Z,20.99
2018-05-29T05:39:53.456Z,21.04
2018-05-29T05:40:53.395Z,21.12
2018-05-29T05:41:53.338Z,21.19
2018-05-29T05:43:14.239Z,21.17
2018-05-29T05:43:53.182Z,21.25
2018-05-29T05:44:53.113Z,21.25
2018-05-29T05:45:53.063Z,21.27
2018-05-29T05:46:52.991Z,21.24
2018-05-29T05:47:52.913Z,21.25
2018-05-29T05:49:13.824Z,21.42
2018-05-29T05:49:52.781Z,21.46
2018-05-29T05:50:52.702Z,21.54
2018-05-29T05:51:52.652Z,21.50
2018-05-29T05:52:52.586Z,21.54
2018-05-29T05:53:52.500Z,21.61
2018-05-29T05:55:13.415Z,21.54
2018-05-29T05:55:52.368Z,21.69
2018-05-29T05:56:52.322Z,21.68
2018-05-29T05:57:52.230Z,21.77
2018-05-29T05:58:52.159Z,21.68
2018-05-29T05:59:52.169Z,21.80
2018-05-29T06:01:13.007Z,21.80
2018-05-29T06:01:51.958Z,21.80
2018-05-29T06:02:51.899Z,21.80
2018-05-29T06:03:51.831Z,21.82
2018-05-29T06:04:51.757Z,21.80
2018-05-29T06:05:51.685Z,21.77
2018-05-29T06:07:12.657Z,21.75
2018-05-29T06:07:51.567Z,21.65
2018-05-29T06:08:51.504Z,21.74
2018-05-29T06:09:51.421Z,21.67
2018-05-29T06:10:51.372Z,21.79
2018-05-29T06:11:51.279Z,21.65
2018-05-29T06:13:12.203Z,21.65
2018-05-29T06:13:51.140Z,21.68
2018-05-29T06:14:51.071Z,21.72
2018-05-29T06:15:51.022Z,21.71
2018-05-29T06:16:50.944Z,21.65
2018-05-29T06:17:50.864Z,21.84
2018-05-29T06:19:11.791Z,21.86
2018-05-29T06:19:50.737Z,21.91
2018-05-29T06:20:50.666Z,21.99
2018-05-29T06:21:50.594Z,21.99
2018-05-29T06:22:50.539Z,22.07
2018-05-29T06:23:50.484Z,22.14
2018-05-29T06:25:12.007Z,22.24
2018-05-29T06:25:50.325Z,22.24
2018-05-29T06:26:50.264Z,22.28
2018-05-29T06:27:50.225Z,22.30
2018-05-29T06:28:50.122Z,22.33
2018-05-29T06:29:50.052Z,22.39
2018-05-29T06:31:10.980Z,22.42
2018-05-29T06:31:49.939Z,22.31
2018-05-29T06:32:49.888Z,22.39
2018-05-29T06:33:49.794Z,22.39
2018-05-29T06:34:49.721Z,22.46
2018-05-29T06:35:49.735Z,22.51
2018-05-29T06:37:10.580Z,22.58
2018-05-29T06:37:49.523Z,22.62
2018-05-29T06:38:49.458Z,22.75
2018-05-29T06:39:49.410Z,22.77
2018-05-29T06:40:49.320Z,22.79
2018-05-29T06:41:49.248Z,22.77
2018-05-29T06:43:10.160Z,22.95
2018-05-29T06:43:49.105Z,22.95
2018-05-29T06:44:49.099Z,22.95
2018-05-29T06:45:48.981Z,22.94
2018-05-29T06:46:48.916Z,23.01
2018-05-29T06:47:48.842Z,23.02
2018-05-29T06:49:09.786Z,23.16
2018-05-29T06:49:48.703Z,23.25
2018-05-29T06:50:48.644Z,23.32
2018-05-29T06:51:48.575Z,23.38
2018-05-29T06:52:48.500Z,23.36
2018-05-29T06:53:48.442Z,23.48
2018-05-29T06:55:09.361Z,23.47
2018-05-29T06:55:48.315Z,23.58
2018-05-29T06:56:48.236Z,23.54
2018-05-29T06:57:48.199Z,23.60
2018-05-29T06:58:48.107Z,23.58
2018-05-29T06:59:48.036Z,23.73
2018-05-29T07:01:08.952Z,23.79
2018-05-29T07:01:47.899Z,23.79
2018-05-29T07:02:47.858Z,23.73
2018-05-29T07:03:47.827Z,23.80
2018-05-29T07:04:47.700Z,23.83
2018-05-29T07:05:47.635Z,23.93
2018-05-29T07:07:08.583Z,23.98
2018-05-29T07:07:47.494Z,23.97
2018-05-29T07:08:47.434Z,24.00
2018-05-29T07:09:47.367Z,24.00
2018-05-29T07:10:47.306Z,23.94
2018-05-29T07:11:47.230Z,24.00
2018-05-29T07:13:08.154Z,23.98
2018-05-29T07:13:47.099Z,24.09
2018-05-29T07:14:47.033Z,24.08
2018-05-29T07:15:46.967Z,24.03
2018-05-29T07:16:46.901Z,24.10
2018-05-29T07:17:46.832Z,24.16
2018-05-29T07:19:07.748Z,24.12
2018-05-29T07:19:46.696Z,24.27
2018-05-29T07:20:46.633Z,24.39
2018-05-29T07:21:46.566Z,24.39
2018-05-29T07:22:46.499Z,24.49
2018-05-29T07:23:46.427Z,24.50
2018-05-29T07:25:07.358Z,24.57
2018-05-29T07:25:46.303Z,24.55
2018-05-29T07:26:46.244Z,24.62
2018-05-29T07:27:46.165Z,24.64
2018-05-29T07:28:46.107Z,24.64
2018-05-29T07:29:46.029Z,24.78
2018-05-29T07:31:06.959Z,24.60
2018-05-29T07:31:45.958Z,24.65
2018-05-29T07:32:45.831Z,24.68
2018-05-29T07:33:45.772Z,24.76
2018-05-29T07:34:45.696Z,24.78
2018-05-29T07:35:45.638Z,24.80
2018-05-29T07:37:06.553Z,24.96
2018-05-29T07:37:45.520Z,25.02
2018-05-29T07:38:45.439Z,25.06
2018-05-29T07:39:45.382Z,25.10
2018-05-29T07:40:45.310Z,25.17
2018-05-29T07:41:45.278Z,25.27
2018-05-29T07:43:06.163Z,25.28
2018-05-29T07:43:45.107Z,25.30
2018-05-29T07:44:45.036Z,25.33
2018-05-29T07:45:44.976Z,25.24
2018-05-29T07:46:44.917Z,25.25
2018-05-29T07:47:44.843Z,25.25
2018-05-29T07:49:05.759Z,25.28
2018-05-29T07:49:44.793Z,25.33
2018-05-29T07:50:44.667Z,25.32
2018-05-29T07:51:44.585Z,25.25
2018-05-29T07:52:44.520Z,25.23
2018-05-29T07:53:44.455Z,25.20
2018-05-29T07:55:05.423Z,25.21
2018-05-29T07:55:44.353Z,25.17
2018-05-29T07:56:44.261Z,25.09
2018-05-29T07:57:44.194Z,25.06
2018-05-29T07:58:44.159Z,25.24
2018-05-29T07:59:44.068Z,25.32
2018-05-29T08:01:05.007Z,25.40
2018-05-29T08:01:43.921Z,25.40
2018-05-29T08:02:43.865Z,25.45
2018-05-29T08:03:43.802Z,25.46
2018-05-29T08:04:43.752Z,25.38
2018-05-29T08:05:43.698Z,25.50
2018-05-29T08:07:04.596Z,25.51
2018-05-29T08:07:43.532Z,25.55
2018-05-29T08:08:43.478Z,25.60
2018-05-29T08:09:43.439Z,25.79
2018-05-29T08:10:43.341Z,25.85
2018-05-29T08:11:43.268Z,25.87
2018-05-29T08:13:04.209Z,25.83
2018-05-29T08:13:43.164Z,25.95
2018-05-29T08:14:43.066Z,26.13
2018-05-29T08:15:43.004Z,26.10
2018-05-29T08:16:42.950Z,26.20
2018-05-29T08:17:42.870Z,26.20
2018-05-29T08:19:03.799Z,26.26
2018-05-29T08:19:42.765Z,26.25
2018-05-29T08:20:42.674Z,26.32
2018-05-29T08:21:42.619Z,26.43
2018-05-29T08:22:42.544Z,26.40
2018-05-29T08:23:42.484Z,26.47
2018-05-29T08:25:03.411Z,26.40
2018-05-29T08:25:42.349Z,26.47
2018-05-29T08:26:42.286Z,26.43
2018-05-29T08:27:42.222Z,26.52
2018-05-29T08:28:42.164Z,26.50
2018-05-29T08:29:42.091Z,26.50
2018-05-29T08:31:03.083Z,26.67
2018-05-29T08:31:41.970Z,26.67
2018-05-29T08:32:41.898Z,26.62
2018-05-29T08:33:41.831Z,26.50
2018-05-29T08:34:41.780Z,26.52
2018-05-29T08:35:41.711Z,26.63
2018-05-29T08:37:02.627Z,26.69
2018-05-29T08:37:41.579Z,26.65
2018-05-29T08:38:41.516Z,26.60
2018-05-29T08:39:41.447Z,26.67
2018-05-29T08:40:41.388Z,26.65
2018-05-29T08:41:41.320Z,26.65
2018-05-29T08:43:02.237Z,26.66
2018-05-29T08:43:41.199Z,26.76
2018-05-29T08:44:41.122Z,26.80
2018-05-29T08:45:41.056Z,26.77
2018-05-29T08:46:40.999Z,26.81
2018-05-29T08:47:40.928Z,26.76
2018-05-29T08:49:01.855Z,26.89
2018-05-29T08:49:40.808Z,26.88
2018-05-29T08:50:40.744Z,27.02
2018-05-29T08:51:40.673Z,27.06
2018-05-29T08:52:40.609Z,27.04
2018-05-29T08:53:40.544Z,27.00
2018-05-29T08:55:01.467Z,27.03
2018-05-29T08:55:40.418Z,27.04
2018-05-29T08:56:40.365Z,27.06
2018-05-29T08:57:40.295Z,27.19
2018-05-29T08:58:40.222Z,27.25
2018-05-29T08:59:40.153Z,27.21
2018-05-29T09:01:01.079Z,27.06
2018-05-29T09:01:40.027Z,27.18
2018-05-29T09:02:39.967Z,27.21
2018-05-29T09:03:39.909Z,27.25
2018-05-29T09:04:39.844Z,27.25
2018-05-29T09:05:39.784Z,27.31
2018-05-29T09:07:00.700Z,27.36
2018-05-29T09:07:39.646Z,27.32
2018-05-29T09:08:39.580Z,27.28
2018-05-29T09:09:39.520Z,27.43
2018-05-29T09:10:39.477Z,27.44
2018-05-29T09:11:39.396Z,27.49
2018-05-29T09:13:00.315Z,27.50
2018-05-29T09:13:39.289Z,27.54
2018-05-29T09:14:39.202Z,27.51
2018-05-29T09:15:39.137Z,27.62
2018-05-29T09:16:39.086Z,27.82
2018-05-29T09:17:39.012Z,27.66
2018-05-29T09:18:59.935Z,27.63
2018-05-29T09:19:38.879Z,27.60
2018-05-29T09:20:38.820Z,27.69
2018-05-29T09:21:38.769Z,27.72
2018-05-29T09:22:38.694Z,27.81
2018-05-29T09:23:38.652Z,27.78
2018-05-29T09:24:59.551Z,27.69
2018-05-29T09:25:38.500Z,27.69
2018-05-29T09:26:38.439Z,27.85
2018-05-29T09:27:38.409Z,28.02
2018-05-29T09:28:38.319Z,28.03
2018-05-29T09:29:38.274Z,28.12
2018-05-29T09:30:59.180Z,28.17
2018-05-29T09:31:38.129Z,28.62
2018-05-29T09:32:38.077Z,29.09
2018-05-29T09:33:38.006Z,29.31
2018-05-29T09:34:37.949Z,29.37
2018-05-29T09:35:37.905Z,29.05
2018-05-29T09:36:58.818Z,29.34
2018-05-29T09:37:37.756Z,29.36
2018-05-29T09:38:37.710Z,29.55
2018-05-29T09:39:37.639Z,30.05
2018-05-29T09:40:37.591Z,30.32
2018-05-29T09:41:37.531Z,30.67
2018-05-29T09:42:58.455Z,30.92
2018-05-29T09:43:37.396Z,31.34
2018-05-29T09:44:37.401Z,31.28
2018-05-29T09:45:37.283Z,31.32
2018-05-29T09:46:37.258Z,31.70
2018-05-29T09:47:37.161Z,32.10
2018-05-29T09:48:58.096Z,32.28
2018-05-29T09:49:37.044Z,32.67
2018-05-29T09:50:36.989Z,32.45
2018-05-29T09:51:36.935Z,32.60
2018-05-29T09:52:36.876Z,32.56
2018-05-29T09:53:36.815Z,31.63
2018-05-29T09:54:57.761Z,31.73
2018-05-29T09:55:36.703Z,31.89
2018-05-29T09:56:36.647Z,32.32
2018-05-29T09:57:36.587Z,32.66
2018-05-29T09:58:36.534Z,33.01
2018-05-29T09:59:36.482Z,33.03
2018-05-29T10:00:57.407Z,32.94
2018-05-29T10:01:36.377Z,32.77
2018-05-29T10:02:36.309Z,32.74
2018-05-29T10:03:36.255Z,32.30
2018-05-29T10:04:36.214Z,32.00
2018-05-29T10:05:36.141Z,31.43
2018-05-29T10:06:57.127Z,31.21
2018-05-29T10:07:36.035Z,31.04
2018-05-29T10:08:35.981Z,30.42
2018-05-29T10:09:35.922Z,30.38
2018-05-29T10:10:35.877Z,29.92
2018-05-29T10:11:35.811Z,29.74
2018-05-29T10:12:56.746Z,29.63
2018-05-29T10:13:35.701Z,29.53
2018-05-29T10:14:35.648Z,29.55
2018-05-29T10:15:35.601Z,29.74
2018-05-29T10:16:35.525Z,29.94
2018-05-29T10:17:35.467Z,30.55
2018-05-29T10:18:56.401Z,30.97
2018-05-29T10:19:35.351Z,31.36
2018-05-29T10:20:35.307Z,31.36
2018-05-29T10:21:35.241Z,31.51
2018-05-29T10:22:35.193Z,30.88
2018-05-29T10:23:35.130Z,30.55
2018-05-29T10:24:56.069Z,30.43
2018-05-29T10:25:35.014Z,30.23
2018-05-29T10:26:34.964Z,30.38
2018-05-29T10:27:34.895Z,30.39
2018-05-29T10:28:34.840Z,30.02
2018-05-29T10:29:34.783Z,29.98
2018-05-29T10:30:55.729Z,30.67
2018-05-29T10:31:34.670Z,30.89
2018-05-29T10:32:34.609Z,31.09
2018-05-29T10:33:34.548Z,31.50
2018-05-29T10:34:34.500Z,31.88
2018-05-29T10:35:34.435Z,31.73
2018-05-29T10:36:55.378Z,31.51
2018-05-29T10:37:34.348Z,31.78
2018-05-29T10:38:34.326Z,31.76
2018-05-29T10:39:34.212Z,32.11
2018-05-29T10:40:34.155Z,32.52
2018-05-29T10:41:34.093Z,32.70
2018-05-29T10:42:55.028Z,32.33
2018-05-29T10:43:33.977Z,32.23
2018-05-29T10:44:33.923Z,32.06
2018-05-29T10:45:33.865Z,31.88
2018-05-29T10:46:33.807Z,31.96
2018-05-29T10:47:33.750Z,31.73
2018-05-29T10:48:54.684Z,31.72
2018-05-29T10:49:33.632Z,31.32
2018-05-29T10:50:33.578Z,31.28
2018-05-29T10:51:33.523Z,31.34
2018-05-29T10:52:33.480Z,31.28
2018-05-29T10:53:33.405Z,30.76
2018-05-29T10:54:54.332Z,30.49
2018-05-29T10:55:33.294Z,30.29
2018-05-29T10:56:33.238Z,29.92
2018-05-29T10:57:33.170Z,30.38
2018-05-29T10:58:33.112Z,30.51
2018-05-29T10:59:33.054Z,30.80
2018-05-29T11:00:53.981Z,31.20
2018-05-29T11:01:32.937Z,31.29
2018-05-29T11:02:32.880Z,31.41
2018-05-29T11:03:32.824Z,31.21
2018-05-29T11:04:32.761Z,31.21
2018-05-29T11:05:32.744Z,31.28
2018-05-29T11:06:53.680Z,31.47
2018-05-29T11:07:32.584Z,31.57
2018-05-29T11:08:32.556Z,31.65
2018-05-29T11:09:32.464Z,31.58
2018-05-29T11:10:32.438Z,31.51
2018-05-29T11:11:32.354Z,31.53
2018-05-29T11:12:53.269Z,31.38
2018-05-29T11:13:32.226Z,31.06
2018-05-29T11:14:32.173Z,31.04
2018-05-29T11:15:32.102Z,30.91
2018-05-29T11:16:32.048Z,31.21
2018-05-29T11:17:31.994Z,31.16
2018-05-29T11:18:52.916Z,31.06
2018-05-29T11:19:31.867Z,31.17
2018-05-29T11:20:31.815Z,31.35
2018-05-29T11:21:31.748Z,31.21
2018-05-29T11:22:31.704Z,31.19
2018-05-29T11:23:31.627Z,31.36
2018-05-29T11:24:52.559Z,31.44
2018-05-29T11:25:31.518Z,31.36
2018-05-29T11:26:31.456Z,31.06
2018-05-29T11:27:31.394Z,31.14
2018-05-29T11:28:31.341Z,31.31
2018-05-29T11:29:31.276Z,31.20
2018-05-29T11:30:52.214Z,31.28
2018-05-29T11:31:31.168Z,31.01
2018-05-29T11:32:31.099Z,31.06
2018-05-29T11:33:31.051Z,31.19
2018-05-29T11:34:30.982Z,30.92
2018-05-29T11:35:30.920Z,31.02
2018-05-29T11:36:51.849Z,30.86
2018-05-29T11:37:30.817Z,30.79
2018-05-29T11:38:30.736Z,30.57
2018-05-29T11:39:30.697Z,30.67
2018-05-29T11:40:30.624Z,30.80
2018-05-29T11:41:30.560Z,30.94
2018-05-29T11:42:51.484Z,30.91
2018-05-29T11:43:30.484Z,31.06
2018-05-29T11:44:30.379Z,31.20
2018-05-29T11:45:30.331Z,31.43
2018-05-29T11:46:30.260Z,31.41
2018-05-29T11:47:30.223Z,31.39
2018-05-29T11:48:51.130Z,31.43
2018-05-29T11:49:30.090Z,31.38
2018-05-29T11:50:30.011Z,31.21
2018-05-29T11:51:29.959Z,31.21
2018-05-29T11:52:29.921Z,31.07
2018-05-29T11:53:29.828Z,30.86
2018-05-29T11:54:50.828Z,30.89
2018-05-29T11:55:29.721Z,30.83
2018-05-29T11:56:29.653Z,30.70
2018-05-29T11:57:29.588Z,30.69
2018-05-29T11:58:29.536Z,30.49
2018-05-29T11:59:29.469Z,30.39
2018-05-29T12:00:50.396Z,30.35
2018-05-29T12:01:29.355Z,30.35
2018-05-29T12:02:29.289Z,30.32
2018-05-29T12:03:29.227Z,30.27
2018-05-29T12:04:29.186Z,30.15
2018-05-29T12:05:29.113Z,30.34
2018-05-29T12:06:50.050Z,30.43
2018-05-29T12:07:28.984Z,29.94
2018-05-29T12:08:28.926Z,30.19
2018-05-29T12:09:28.865Z,30.35
2018-05-29T12:10:28.813Z,30.49
2018-05-29T12:11:28.753Z,30.53
2018-05-29T12:12:49.672Z,30.35
2018-05-29T12:13:28.615Z,30.10
2018-05-29T12:14:28.559Z,30.07
2018-05-29T12:15:28.515Z,30.23
2018-05-29T12:16:28.434Z,30.26
2018-05-29T12:17:28.376Z,30.43
2018-05-29T12:18:49.301Z,30.39
2018-05-29T12:19:28.271Z,30.38
2018-05-29T12:20:28.189Z,30.53
2018-05-29T12:21:28.138Z,30.64
2018-05-29T12:22:28.067Z,30.64
2018-05-29T12:23:28.010Z,30.53
2018-05-29T12:24:48.937Z,30.49
2018-05-29T12:25:27.892Z,30.24
2018-05-29T12:26:27.818Z,30.16
2018-05-29T12:27:27.800Z,30.10
2018-05-29T12:28:27.712Z,30.02
2018-05-29T12:29:27.635Z,29.92
2018-05-29T12:30:48.567Z,29.98
2018-05-29T12:31:27.520Z,30.11
2018-05-29T12:32:27.454Z,30.20
2018-05-29T12:33:27.388Z,30.27
2018-05-29T12:34:27.341Z,30.02
2018-05-29T12:35:27.265Z,30.13
2018-05-29T12:36:48.197Z,30.07
2018-05-29T12:37:27.146Z,30.02
2018-05-29T12:38:27.098Z,30.16
2018-05-29T12:39:27.021Z,30.31
2018-05-29T12:40:27.033Z,30.53
2018-05-29T12:41:26.896Z,30.70
2018-05-29T12:42:47.827Z,30.88
2018-05-29T12:43:26.776Z,31.04
2018-05-29T12:44:26.716Z,31.14
2018-05-29T12:45:26.665Z,31.23
2018-05-29T12:46:26.701Z,31.23
2018-05-29T12:47:26.529Z,31.21
2018-05-29T12:48:47.458Z,30.92
2018-05-29T12:49:26.403Z,30.94
2018-05-29T12:50:26.340Z,30.94
2018-05-29T12:51:26.294Z,30.92